地図

経路データ

SID SEASON NUMBER BASIN SUBBASIN NAME ISO_TIME NATURE LAT LON WMO_WIND WMO_PRES WMO_AGENCY TRACK_TYPE DIST2LAND LANDFALL IFLAG USA_AGENCY USA_ATCF_ID USA_LAT USA_LON USA_RECORD USA_STATUS USA_WIND USA_PRES USA_SSHS USA_R34_NE USA_R34_SE USA_R34_SW USA_R34_NW USA_R50_NE USA_R50_SE USA_R50_SW USA_R50_NW USA_R64_NE USA_R64_SE USA_R64_SW USA_R64_NW USA_POCI USA_ROCI USA_RMW USA_EYE TOKYO_LAT TOKYO_LON TOKYO_GRADE TOKYO_WIND TOKYO_PRES TOKYO_R50_DIR TOKYO_R50_LONG TOKYO_R50_SHORT TOKYO_R30_DIR TOKYO_R30_LONG TOKYO_R30_SHORT TOKYO_LAND CMA_LAT CMA_LON CMA_CAT CMA_WIND CMA_PRES HKO_LAT HKO_LON HKO_CAT HKO_WIND HKO_PRES NEWDELHI_LAT NEWDELHI_LON NEWDELHI_GRADE NEWDELHI_WIND NEWDELHI_PRES NEWDELHI_CI NEWDELHI_DP NEWDELHI_POCI REUNION_LAT REUNION_LON REUNION_TYPE REUNION_WIND REUNION_PRES REUNION_TNUM REUNION_CI REUNION_RMW REUNION_R34_NE REUNION_R34_SE REUNION_R34_SW REUNION_R34_NW REUNION_R50_NE REUNION_R50_SE REUNION_R50_SW REUNION_R50_NW REUNION_R64_NE REUNION_R64_SE REUNION_R64_SW REUNION_R64_NW BOM_LAT BOM_LON BOM_TYPE BOM_WIND BOM_PRES BOM_TNUM BOM_CI BOM_RMW BOM_R34_NE BOM_R34_SE BOM_R34_SW BOM_R34_NW BOM_R50_NE BOM_R50_SE BOM_R50_SW BOM_R50_NW BOM_R64_NE BOM_R64_SE BOM_R64_SW BOM_R64_NW BOM_ROCI BOM_POCI BOM_EYE BOM_POS_METHOD BOM_PRES_METHOD NADI_LAT NADI_LON NADI_CAT NADI_WIND NADI_PRES WELLINGTON_LAT WELLINGTON_LON WELLINGTON_WIND WELLINGTON_PRES DS824_LAT DS824_LON DS824_STAGE DS824_WIND DS824_PRES TD9636_LAT TD9636_LON TD9636_STAGE TD9636_WIND TD9636_PRES TD9635_LAT TD9635_LON TD9635_WIND TD9635_PRES TD9635_ROCI NEUMANN_LAT NEUMANN_LON NEUMANN_CLASS NEUMANN_WIND NEUMANN_PRES MLC_LAT MLC_LON MLC_CLASS MLC_WIND MLC_PRES USA_GUST BOM_GUST BOM_GUST_PER REUNION_GUST REUNION_GUST_PER USA_SEAHGT USA_SEARAD_NE USA_SEARAD_SE USA_SEARAD_SW USA_SEARAD_NW STORM_SPEED STORM_DIR
1970252N16277 1970 112 NA CS ELLA 1970-09-08 12:00:00 TS 15.8000 -82.8000 25 1009 hurdat_atl main 85 85 O_____________ hurdat_atl AL121970 15.8000 -82.8000 TD 25 1009 -1 5 324
1970252N16277 1970 112 NA CS ELLA 1970-09-08 15:00:00 TS 16.0000 -82.9474 main 94 89 P_____________ AL121970 16.0000 -82.9474 TD 25 1009 -1 5 324
1970252N16277 1970 112 NA CS ELLA 1970-09-08 18:00:00 TS 16.2000 -83.1000 25 1009 hurdat_atl main 105 105 O_____________ hurdat_atl AL121970 16.2000 -83.1000 TD 25 1009 -1 5 322
1970252N16277 1970 112 NA CS ELLA 1970-09-08 21:00:00 TS 16.3999 -83.2701 main 116 116 P_____________ AL121970 16.3999 -83.2701 TD 25 1008 -1 6 316
1970252N16277 1970 112 NA CS ELLA 1970-09-09 00:00:00 TS 16.6000 -83.5000 25 1008 hurdat_atl main 123 116 O_____________ hurdat_atl AL121970 16.6000 -83.5000 TD 25 1008 -1 7 306
1970252N16277 1970 112 NA CS ELLA 1970-09-09 03:00:00 TS 16.7850 -83.8276 main 123 119 P_____________ AL121970 16.7850 -83.8276 TD 25 1007 -1 8 301
1970252N16277 1970 112 NA CS ELLA 1970-09-09 06:00:00 TS 17.0000 -84.2000 25 1007 hurdat_atl main 134 130 O_____________ hurdat_atl AL121970 17.0000 -84.2000 TD 25 1007 -1 9 305
1970252N16277 1970 112 NA CS ELLA 1970-09-09 09:00:00 TS 17.2700 -84.5576 main 157 157 P_____________ AL121970 17.2700 -84.5576 TD 25 1007 -1 9 312
1970252N16277 1970 112 NA CS ELLA 1970-09-09 12:00:00 TS 17.6000 -84.9000 25 1007 hurdat_atl main 190 190 O_____________ hurdat_atl AL121970 17.6000 -84.9000 TD 25 1007 -1 10 319
1970252N16277 1970 112 NA CS ELLA 1970-09-09 15:00:00 TS 17.9849 -85.2076 main 235 228 P_____________ AL121970 17.9849 -85.2076 TD 27 1006 -1 10 324
1970252N16277 1970 112 NA CS ELLA 1970-09-09 18:00:00 TS 18.4000 -85.5000 30 hurdat_atl main 228 184 I_____________ hurdat_atl AL121970 18.4000 -85.5000 TD 30 1006 -1 10 326
1970252N16277 1970 112 NA CS ELLA 1970-09-09 21:00:00 TS 18.7999 -85.7927 main 184 140 P_____________ AL121970 18.7999 -85.7927 TD 32 1005 -1 10 325
1970252N16277 1970 112 NA CS ELLA 1970-09-10 00:00:00 TS 19.2000 -86.1000 35 1005 hurdat_atl main 140 104 O_____________ hurdat_atl AL121970 19.2000 -86.1000 TS 35 1005 0 10 323
1970252N16277 1970 112 NA CS ELLA 1970-09-10 03:00:00 TS 19.5944 -86.4281 main 105 73 P_____________ AL121970 19.5944 -86.4281 TS 37 1004 0 10 320
1970252N16277 1970 112 NA CS ELLA 1970-09-10 06:00:00 TS 20.0000 -86.8000 40 hurdat_atl main 73 15 I_____________ hurdat_atl AL121970 20.0000 -86.8000 TS 40 1004 0 11 318
1970252N16277 1970 112 NA CS ELLA 1970-09-10 09:00:00 TS 20.4331 -87.2322 main 15 0 P_____________ AL121970 20.4331 -87.2322 TS 40 1004 0 12 317
1970252N16277 1970 112 NA CS ELLA 1970-09-10 09:30:00 TS 20.5000 -87.3000 40 hurdat_atl main 0 0 I_____________ hurdat_atl AL121970 20.5000 -87.3000 L TS 40 1004 0 10 317
1970252N16277 1970 112 NA NA ELLA 1970-09-10 12:00:00 TS 20.8000 -87.6000 35 1004 hurdat_atl main 0 0 O_____________ hurdat_atl AL121970 20.8000 -87.6000 TS 35 1004 0 13 316
1970252N16277 1970 112 NA NA ELLA 1970-09-10 15:00:00 TS 21.3610 -88.1991 main 0 0 P_____________ AL121970 21.3610 -88.1991 TS 42 1000 0 18 313
1970252N16277 1970 112 NA GM ELLA 1970-09-10 18:00:00 TS 22.0000 -89.0000 50 997 hurdat_atl main 69 69 O_____________ hurdat_atl AL121970 22.0000 -89.0000 TS 50 997 0 20 307
1970252N16277 1970 112 NA GM ELLA 1970-09-10 21:00:00 TS 22.5449 -89.8700 main 145 145 P_____________ AL121970 22.5449 -89.8700 TS 57 995 0 19 301
1970252N16277 1970 112 NA GM ELLA 1970-09-11 00:00:00 TS 23.0000 -90.8000 65 993 hurdat_atl main 218 218 O_____________ hurdat_atl AL121970 23.0000 -90.8000 HU 65 993 1 19 295
1970252N16277 1970 112 NA GM ELLA 1970-09-11 03:00:00 TS 23.3522 -91.7154 main 294 294 P_____________ AL121970 23.3522 -91.7154 HU 65 993 1 18 290
1970252N16277 1970 112 NA GM ELLA 1970-09-11 06:00:00 TS 23.6000 -92.6000 65 994 hurdat_atl main 366 366 O_____________ hurdat_atl AL121970 23.6000 -92.6000 HU 65 994 1 16 285
1970252N16277 1970 112 NA GM ELLA 1970-09-11 09:00:00 TS 23.7872 -93.4378 main 432 354 P_____________ AL121970 23.7872 -93.4378 HU 67 991 1 15 282
1970252N16277 1970 112 NA GM ELLA 1970-09-11 12:00:00 TS 23.9000 -94.2000 70 hurdat_atl main 354 285 I_____________ hurdat_atl AL121970 23.9000 -94.2000 HU 70 989 1 13 278
1970252N16277 1970 112 NA GM ELLA 1970-09-11 15:00:00 TS 23.9797 -94.8951 main 285 229 P_____________ AL121970 23.9797 -94.8951 HU 72 986 1 12 275
1970252N16277 1970 112 NA GM ELLA 1970-09-11 18:00:00 TS 24.0000 -95.5000 75 984 hurdat_atl main 229 181 O_____________ hurdat_atl AL121970 24.0000 -95.5000 HU 75 984 1 10 269
1970252N16277 1970 112 NA GM ELLA 1970-09-11 21:00:00 TS 23.9647 -96.0302 main 181 132 P_____________ AL121970 23.9647 -96.0302 HU 80 978 1 9 264
1970252N16277 1970 112 NA GM ELLA 1970-09-12 00:00:00 TS 23.9000 -96.5000 85 973 hurdat_atl main 132 81 O_____________ hurdat_atl AL121970 23.9000 -96.5000 HU 85 973 2 9 261
1970252N16277 1970 112 NA GM ELLA 1970-09-12 03:00:00 TS 23.8272 -96.9983 main 81 40 P_____________ AL121970 23.8272 -96.9983 HU 92 970 2 8 263
1970252N16277 1970 112 NA GM ELLA 1970-09-12 06:00:00 TS 23.8000 -97.4000 100 967 hurdat_atl main 40 20 O_____________ hurdat_atl AL121970 23.8000 -97.4000 HU 100 967 3 6 275
1970252N16277 1970 112 NA GM ELLA 1970-09-12 09:00:00 TS 23.8805 -97.6029 main 20 10 P_____________ AL121970 23.8805 -97.6029 HU 107 963 3 4 290
1970252N16277 1970 112 NA GM ELLA 1970-09-12 10:00:00 TS 23.9000 -97.7000 110 962 hurdat_atl main 10 0 O_____________ hurdat_atl AL121970 23.9000 -97.7000 L HU 110 962 3 7 273
1970252N16277 1970 112 NA NA ELLA 1970-09-12 12:00:00 TS 23.9000 -98.0000 80 hurdat_atl main 0 0 O_____________ hurdat_atl AL121970 23.9000 -98.0000 HU 80 1 8 280
1970252N16277 1970 112 NA NA ELLA 1970-09-12 15:00:00 TS 24.0085 -98.3797 main 0 0 P_____________ AL121970 24.0085 -98.3797 HU 67 1 7 295
1970252N16277 1970 112 NA NA ELLA 1970-09-12 18:00:00 TS 24.2000 -98.7000 55 hurdat_atl main 0 0 O_____________ hurdat_atl AL121970 24.2000 -98.7000 TS 55 0 7 304
1970252N16277 1970 112 NA NA ELLA 1970-09-12 21:00:00 TS 24.3923 -99.0001 main 0 0 P_____________ AL121970 24.3923 -99.0001 TS 45 0 7 306
1970252N16277 1970 112 NA NA ELLA 1970-09-13 00:00:00 TS 24.6000 -99.3000 35 hurdat_atl main 0 0 O_____________ hurdat_atl AL121970 24.6000 -99.3000 TS 35 0 7 305
1970252N16277 1970 112 NA NA ELLA 1970-09-13 03:00:00 TS 24.8027 -99.6373 main 0 0 P_____________ AL121970 24.8027 -99.6373 TS 30 -1 8 302
1970252N16277 1970 112 NA NA ELLA 1970-09-13 06:00:00 TS 25.0000 -100.000 25 hurdat_atl main 0 O_____________ hurdat_atl AL121970 25.0000 -100.000 TD 25 -1 8 301

IBTrACS Databaseについて

本データベースは、米国NOAAが公開する1842年以降の世界の熱帯低気圧のベストトラックデータアーカイブInternational Best Track Archive for Climate Stewardship (IBTrACS)を、ウェブで閲覧しやすい形式に変換したものです。

最終更新日:2022-05-24